Latest Weather Observations for Coolangatta

IDQ60801

Issued at 7:32 am EST Saturday 1 October 2016 (issued every 30 minutes, with the page automatically refreshed every 10 minutes)

About weather observations | Map of weather stations | Latest weather observations for QLD | Other Formats
Station Details ID: 040717 Name: COOLANGATTA Lat: -28.17 Lon: 153.51 Height: 4.0 m
Data from the previous 72 hours. | See also: Recent months at Coolangatta
Date/Time
EST
Temp
°C
App
Temp
°C
Dew
Point
°C
Rel
Hum
%
Delta-T
°C
Wind Press
QNH
hPa
Press
MSL
hPa
Rain since
9am
mm
Dir  Spd
km/h
Gust
km/h
Spd
kts
Gust
kts
01/07:30am 15.6 13.8 5.5 51 4.8 WSW 4 7 2 4 1012.1 1012.1 0.0
01/07:00am 13.2 12.6 7.2 67 2.9 CALM 0 6 0 3 1011.8 1011.8 0.0
01/06:30am 11.1 10.5 7.2 77 1.9 CALM 0 0 0 0 1011.3 1011.3 0.0
01/06:00am 9.0 7.5 7.0 87 0.9 S 4 7 2 4 1011.3 1011.3 0.0
01/05:30am 8.1 7.1 5.7 85 1.1 CALM 0 6 0 3 1011.1 1011.1 0.0
01/05:00am 7.9 6.2 5.9 87 0.9 SW 4 7 2 4 1010.9 1010.9 0.0
01/04:30am 7.6 5.3 4.9 83 1.2 WSW 6 11 3 6 1010.6 1010.6 0.0
01/04:00am 8.0 5.4 6.0 87 0.9 WSW 9 11 5 6 1009.7 1009.7 0.0
01/03:30am 8.8 6.7 5.7 81 1.4 SW 6 9 3 5 1009.5 1009.5 0.0
01/03:00am 8.5 5.5 5.8 83 1.2 W 11 15 6 8 1009.4 1009.4 0.0
01/02:30am 8.0 5.3 5.8 86 1.0 W 9 15 5 8 1009.2 1009.2 0.0
01/02:00am 8.2 5.5 5.5 83 1.2 W 9 11 5 6 1009.5 1009.5 0.0
01/01:30am 8.9 6.1 5.3 78 1.6 WSW 9 13 5 7 1009.9 1009.9 0.0
01/01:00am 10.1 7.7 7.0 81 1.5 WSW 9 11 5 6 1009.7 1009.7 0.0
01/12:30am 10.3 7.6 7.2 81 1.5 W 11 13 6 7 1009.6 1009.6 0.0
01/12:00am 10.4 8.3 6.5 77 1.8 WSW 7 9 4 5 1009.4 1009.4 0.0
 
Date/Time
EST
Temp
°C
App
Temp
°C
Dew
Point
°C
Rel
Hum
%
Delta-T
°C
Wind Press
QNH
hPa
Press
MSL
hPa
Rain since
9am
mm
Dir  Spd
km/h
Gust
km/h
Spd
kts
Gust
kts
30/11:30pm 11.4 8.4 7.5 77 1.9 WSW 13 15 7 8 1009.4 1009.4 0.0
30/11:00pm 11.6 8.8 6.9 73 2.2 WSW 11 15 6 8 1009.6 1009.6 0.0
30/10:30pm 11.1 8.8 5.8 70 2.5 W 7 11 4 6 1009.7 1009.7 0.0
30/10:00pm 13.3 11.3 7.3 67 2.9 WSW 7 7 4 4 1009.6 1009.6 0.0
30/09:30pm 14.8 11.4 4.2 49 4.9 NW 11 13 6 7 1009.3 1009.3 0.0
30/09:00pm 15.8 12.0 3.9 45 5.5 NW 13 15 7 8 1009.1 1009.1 0.0
30/08:30pm 16.9 13.3 2.9 39 6.4 NW 11 17 6 9 1008.9 1008.9 0.0
30/08:00pm 18.1 14.5 2.8 36 7.1 NW 11 17 6 9 1008.6 1008.6 0.0
30/07:30pm 18.8 13.6 2.6 34 7.5 NW 19 26 10 14 1007.7 1007.7 0.0
30/07:00pm 19.7 14.5 2.6 32 8.0 NW 19 26 10 14 1007.0 1007.0 0.0
30/06:30pm 19.8 14.6 2.6 32 8.0 WNW 19 28 10 15 1006.4 1006.4 0.0
30/06:00pm 20.2 14.4 2.5 31 8.3 NW 22 33 12 18 1005.9 1005.9 0.0
30/05:30pm 21.3 16.7 1.6 27 9.1 WNW 15 30 8 16 1005.4 1005.4 0.0
30/05:00pm 22.2 15.9 1.8 26 9.5 WNW 24 37 13 20 1004.4 1004.3 0.0
30/04:30pm 23.1 17.4 2.6 26 9.8 WNW 22 33 12 18 1003.9 1003.8 0.0
30/04:03pm 23.6 16.8 3.0 26 9.9 W 28 46 15 25 1003.4 1003.3 0.0
30/04:00pm 23.7 16.9 3.1 26 10.0 W 28 43 15 23 1003.3 1003.2 0.0
30/03:30pm 24.6 18.9 2.7 24 10.6 W 22 35 12 19 1003.2 1003.1 0.0
30/03:10pm 24.6 17.6 2.1 23 10.7 NW 28 46 15 25 1003.0 1002.9 0.0
30/03:00pm 24.4 16.3 1.3 22 10.9 WNW 33 48 18 26 1002.8 1002.7 0.0
30/02:40pm 24.8 17.1 2.3 23 10.8 WNW 32 50 17 27 1002.4 1002.3 0.0
30/02:30pm 24.3 15.5 1.2 22 10.8 WNW 37 52 20 28 1002.3 1002.2 0.0
30/02:00pm 24.4 16.6 1.9 23 10.7 WNW 32 50 17 27 1002.2 1002.1 0.0
30/01:56pm 24.8 17.9 2.3 23 10.8 WNW 28 46 15 25 1002.1 1002.0 0.0
30/01:30pm 24.5 17.3 3.2 25 10.4 NW 30 44 16 24 1002.1 1002.0 0.0
30/01:20pm 24.3 17.2 1.2 22 10.8 WNW 28 48 15 26 1002.1 1002.0 0.0
30/01:00pm 24.0 17.5 2.8 25 10.2 NW 26 44 14 24 1002.3 1002.2 0.0
30/12:32pm 24.2 17.1 3.5 26 10.1 NNW 30 48 16 26 1002.8 1002.7 0.0
30/12:30pm 23.8 16.3 3.2 26 10.0 NW 32 48 17 26 1002.9 1002.8 0.0
30/12:06pm 23.9 17.0 2.7 25 10.2 NW 28 48 15 26 1003.0 1002.9 0.0
30/12:00pm 24.1 19.0 4.0 27 9.9 NW 20 39 11 21 1003.1 1003.0 0.0
30/11:30am 23.2 16.2 2.1 25 10.0 NW 28 44 15 24 1003.6 1003.5 0.0
30/11:27am 23.7 16.9 3.1 26 9.9 NW 28 50 15 27 1003.6 1003.5 0.0
30/11:00am 23.4 18.2 5.3 31 9.1 NW 22 35 12 19 1004.1 1004.0 0.0
30/10:30am 22.8 17.3 5.7 33 8.6 WNW 24 39 13 21 1004.3 1004.2 0.0
30/10:09am 21.8 15.2 4.4 32 8.5 WNW 28 46 15 25 1004.5 1004.4 0.0
30/10:00am 22.1 15.4 5.5 34 8.3 NW 30 43 16 23 1004.6 1004.5 0.0
30/09:30am 21.6 16.2 6.3 37 7.7 WNW 24 32 13 17 1004.7 1004.6 0.0
30/09:00am 21.4 16.0 6.5 38 7.6 NW 24 37 13 20 1005.0 1005.0 3.4
30/08:30am 21.1 17.0 8.7 45 6.5 WNW 20 30 11 16 1005.5 1005.5 3.4
30/08:00am 20.5 17.5 12.5 60 4.5 NW 20 32 11 17 1005.6 1005.6 3.4
30/07:30am 19.8 19.3 15.0 74 2.8 NW 11 15 6 8 1005.7 1005.7 3.4
30/07:00am 19.4 19.4 15.3 77 2.4 NW 9 15 5 8 1005.5 1005.5 3.4
30/06:30am 18.2 18.3 15.5 84 1.6 NW 9 11 5 6 1005.4 1005.4 3.4
30/06:00am 16.0 16.1 14.4 90 0.9 NNW 7 9 4 5 1005.3 1005.3 3.4
30/05:30am 16.0 16.1 14.4 90 0.9 NW 7 9 4 5 1005.0 1005.0 3.4
30/05:00am 15.9 15.6 14.4 91 0.9 NW 9 13 5 7 1004.7 1004.6 3.2
30/04:30am 15.8 15.5 14.5 92 0.7 WNW 9 11 5 6 1004.5 1004.4 3.2
30/04:00am 16.1 16.2 14.5 90 0.9 NW 7 11 4 6 1004.7 1004.6 3.2
30/03:30am 16.7 16.1 14.5 87 1.3 NNW 11 15 6 8 1004.6 1004.5 3.2
30/03:00am 16.3 16.1 14.7 90 0.9 WNW 9 17 5 9 1004.5 1004.4 3.2
30/02:30am 16.5 16.4 15.0 91 0.9 NW 9 13 5 7 1004.7 1004.6 3.2
30/02:00am 16.9 16.5 15.1 89 1.0 NW 11 17 6 9 1004.9 1004.8 3.2
30/01:31am 17.3 15.9 15.5 89 1.1 NW 17 24 9 13 1005.6 1005.6 3.2
30/01:30am 17.3 15.5 15.5 89 1.1 NW 19 26 10 14 1005.6 1005.6 3.2
30/01:11am 17.9 16.2 14.6 81 1.9 NW 17 24 9 13 1005.7 1005.7 2.4
30/01:00am 19.0 16.8 13.4 70 3.2 NW 17 20 9 11 1005.6 1005.6 0.0
30/12:30am 19.3 15.8 13.3 68 3.4 NW 24 39 13 21 1005.6 1005.6 0.0
30/12:00am 19.1 16.4 12.8 67 3.6 NNW 19 33 10 18 1005.9 1005.9 0.0
 
Date/Time
EST
Temp
°C
App
Temp
°C
Dew
Point
°C
Rel
Hum
%
Delta-T
°C
Wind Press
QNH
hPa
Press
MSL
hPa
Rain since
9am
mm
Dir  Spd
km/h
Gust
km/h
Spd
kts
Gust
kts
29/11:30pm 18.8 15.8 12.5 67 3.5 NNW 20 30 11 16 1006.1 1006.1 0.0
29/11:00pm 19.2 15.1 12.7 66 3.7 NNW 26 43 14 23 1006.1 1006.1 0.0
29/10:30pm 18.8 16.0 13.2 70 3.2 NNW 20 32 11 17 1006.1 1006.1 0.0
29/10:00pm 18.9 14.8 13.7 72 3.0 NNW 28 43 15 23 1006.3 1006.3 0.0
29/09:30pm 19.0 15.7 14.1 73 2.8 NNW 24 39 13 21 1006.3 1006.3 0.0
29/09:00pm 19.0 16.9 14.7 76 2.5 NNW 19 30 10 16 1006.3 1006.3 0.0
29/08:30pm 19.2 16.1 14.5 74 2.7 NNW 24 41 13 22 1006.4 1006.4 0.0
29/08:00pm 19.3 17.2 13.7 70 3.2 NNW 17 26 9 14 1006.6 1006.6 0.0
29/07:30pm 19.4 16.8 13.1 67 3.6 NNW 19 28 10 15 1006.3 1006.3 0.0
29/07:00pm 19.6 17.0 13.1 66 3.7 NW 19 28 10 15 1006.0 1006.0 0.0
29/06:30pm 19.0 17.2 13.2 69 3.3 NW 15 20 8 11 1006.1 1006.1 0.0
29/06:00pm 18.5 15.9 13.1 71 3.1 NW 19 26 10 14 1005.6 1005.6 0.0
29/05:30pm 18.7 16.5 13.3 71 3.1 NW 17 26 9 14 1005.6 1005.6 0.0
29/05:00pm 18.1 15.5 13.8 76 2.5 NW 20 28 11 15 1005.8 1005.8 0.0
29/04:30pm 18.6 15.7 13.0 70 3.2 WNW 20 35 11 19 1005.4 1005.4 0.0
29/04:00pm 21.3 17.9 11.3 53 5.6 NW 20 28 11 15 1005.7 1005.7 0.0
29/03:30pm 21.5 18.5 11.8 54 5.4 WNW 19 24 10 13 1005.6 1005.6 0.0
29/03:00pm 22.0 18.1 10.8 49 6.2 NNW 22 35 12 19 1005.2 1005.2 0.0
29/02:30pm 22.5 17.8 10.6 47 6.5 NW 26 37 14 20 1005.6 1005.6 0.0
29/02:00pm 22.4 19.0 10.5 47 6.5 NNW 19 28 10 15 1006.1 1006.1 0.0
29/01:30pm 22.4 18.2 9.9 45 6.8 NW 22 35 12 19 1006.3 1006.3 0.0
29/01:00pm 22.4 17.2 8.9 42 7.2 NW 26 37 14 20 1006.9 1006.9 0.0
29/12:32pm 23.0 17.1 9.0 41 7.5 NNW 30 48 16 26 1007.2 1007.2 0.0
29/12:30pm 23.1 17.1 10.2 44 7.1 NNW 32 43 17 23 1007.1 1007.1 0.0
29/12:00pm 22.5 16.5 13.3 56 5.3 N 37 46 20 25 1007.5 1007.5 0.0
29/11:30am 22.4 17.4 13.5 57 5.1 N 32 37 17 20 1007.4 1007.4 0.0
29/11:00am 22.4 17.9 13.7 58 5.1 N 30 37 16 20 1007.6 1007.6 0.0
29/10:30am 22.7 19.2 15.5 64 4.3 N 28 33 15 18 1008.0 1008.0 0.0
29/10:00am 22.0 18.1 14.4 62 4.5 NNW 28 37 15 20 1008.5 1008.5 0.0
29/09:30am 23.0 19.9 14.6 59 5.0 NNW 24 33 13 18 1008.6 1008.6 0.0
29/09:00am 22.1 20.0 15.2 65 4.1 N 20 28 11 15 1008.5 1008.5 0.0
29/08:30am 20.7 20.4 15.5 72 3.1 N 11 15 6 8 1009.5 1009.5 0.0
29/08:00am 20.1 20.1 15.3 74 2.8 NNW 9 13 5 7 1009.7 1009.7 0.0
29/07:30am 19.5 18.9 14.7 74 2.8 NW 11 17 6 9 1009.7 1009.7 0.0
29/07:00am 19.8 17.7 13.7 68 3.5 NNW 17 24 9 13 1009.3 1009.3 0.0
29/06:30am 19.6 18.0 15.0 75 2.7 NNW 17 26 9 14 1009.0 1009.0 0.0
29/06:00am 19.2 19.0 15.7 80 2.1 NW 11 17 6 9 1009.1 1009.1 0.0
29/05:30am 18.9 18.3 15.6 81 1.9 NW 13 19 7 10 1008.8 1008.8 0.0
29/05:00am 18.8 18.2 15.7 82 1.8 NW 13 19 7 10 1008.8 1008.8 0.0
29/04:30am 18.4 18.1 15.5 83 1.7 NW 11 15 6 8 1009.1 1009.1 0.0
29/04:08am 18.0 17.6 15.3 84 1.6 NNW 11 13 6 7 1009.1 1009.1 0.0
29/04:00am 17.5 17.4 15.0 85 1.5 NW 9 13 5 7 1009.0 1009.0 0.0
29/03:49am 17.2 16.9 14.5 84 1.6 NW 9 11 5 6 1009.4 1009.4 0.0
29/03:30am 17.6 17.3 14.5 82 1.8 NW 9 9 5 5 1009.4 1009.4 0.0
29/03:00am 17.6 17.8 14.3 81 1.9 WNW 6 7 3 4 1009.7 1009.7 0.0
29/02:30am 18.4 18.1 14.3 77 2.4 WNW 9 13 5 7 1010.1 1010.1 0.0
29/02:00am 18.8 18.5 14.3 75 2.6 NW 9 13 5 7 1010.2 1010.2 0.0
29/01:30am 19.9 17.7 14.9 73 2.9 N 20 26 11 14 1010.6 1010.6 0.0
29/01:00am 20.1 18.2 15.1 73 2.9 N 19 24 10 13 1011.2 1011.2 0.0
29/12:30am 20.0 17.7 14.6 71 3.1 N 20 28 11 15 1011.8 1011.8 0.0
29/12:00am 20.2 17.8 14.3 69 3.4 N 20 26 11 14 1012.0 1012.0 0.0
 
Date/Time
EST
Temp
°C
App
Temp
°C
Dew
Point
°C
Rel
Hum
%
Delta-T
°C
Wind Press
QNH
hPa
Press
MSL
hPa
Rain since
9am
mm
Dir  Spd
km/h
Gust
km/h
Spd
kts
Gust
kts
28/11:30pm 20.1 17.6 14.2 69 3.4 N 20 26 11 14 1012.4 1012.4 0.0
28/11:00pm 19.7 17.7 13.9 69 3.3 N 17 22 9 12 1012.6 1012.6 0.0
28/10:30pm 19.4 18.5 13.6 69 3.3 N 11 19 6 10 1012.9 1012.9 0.0
28/10:00pm 19.6 17.7 13.1 66 3.7 N 15 19 8 10 1012.9 1012.9 0.0
28/09:30pm 19.8 17.8 12.8 64 3.9 NNE 15 20 8 11 1013.0 1013.0 0.0
28/09:00pm 20.2 17.8 12.7 62 4.2 NNE 17 20 9 11 1012.9 1012.9 0.0
28/08:30pm 20.2 18.2 12.7 62 4.2 NE 15 19 8 10 1012.9 1012.9 0.0
28/08:00pm 19.9 18.1 12.2 61 4.3 NE 13 17 7 9 1012.8 1012.8 0.0
28/07:30pm 19.7 17.9 12.0 61 4.3 NNE 13 15 7 8 1012.9 1012.9 0.0
28/07:00pm 19.9 18.0 11.7 59 4.5 NE 13 17 7 9 1012.9 1012.9 0.0
28/06:30pm 20.0 17.7 11.8 59 4.5 NE 15 20 8 11 1012.4 1012.4 0.0
28/06:00pm 20.0 17.7 11.8 59 4.5 ENE 15 22 8 12 1012.2 1012.2 0.0
28/05:30pm 20.1 17.7 11.3 57 4.8 ENE 15 19 8 10 1012.1 1012.1 0.0
28/05:00pm 20.8 18.0 11.2 54 5.3 ENE 17 22 9 12 1011.7 1011.7 0.0
28/04:30pm 21.6 18.9 11.6 53 5.6 ENE 17 22 9 12 1011.5 1011.5 0.0
28/04:00pm 22.0 18.6 11.4 51 5.9 ENE 20 26 11 14 1011.1 1011.1 0.0
28/03:30pm 22.3 19.1 11.4 50 6.1 ENE 19 26 10 14 1011.0 1011.0 0.0
28/03:00pm 23.1 20.3 11.2 47 6.6 E 17 24 9 13 1011.1 1011.1 0.0
28/02:30pm 22.7 19.2 10.2 45 6.8 E 19 26 10 14 1011.3 1011.3 0.0
28/02:00pm 23.5 19.7 9.9 42 7.4 E 20 28 11 15 1011.7 1011.7 0.0
28/01:30pm 23.7 19.5 7.3 35 8.6 E 19 26 10 14 1011.9 1011.9 0.0
28/01:00pm 23.5 18.6 4.9 30 9.3 ESE 20 26 11 14 1012.2 1012.2 0.0
28/12:30pm 23.3 18.1 5.7 32 8.9 ESE 22 28 12 15 1012.6 1012.6 0.0
28/12:00pm 23.3 18.1 5.7 32 8.9 ESE 22 28 12 15 1012.8 1012.8 0.0
28/11:30am 23.2 17.7 6.1 33 8.7 E 24 32 13 17 1013.1 1013.1 0.0
28/11:00am 23.7 19.0 7.8 36 8.4 ESE 22 30 12 16 1013.5 1013.5 0.0
28/10:30am 23.2 18.0 7.3 36 8.3 ESE 24 30 13 16 1013.7 1013.7 0.0
28/10:00am 23.0 19.6 7.5 37 8.1 SSE 15 26 8 14 1014.0 1014.0 0.0
28/09:30am 22.5 19.1 7.5 38 7.8 SE 15 22 8 12 1014.0 1014.0 0.0
28/09:00am 22.2 18.6 6.8 37 7.9 SSW 15 24 8 13 1013.9 1013.9 0.0
28/08:30am 21.8 17.5 6.9 38 7.6 S 19 26 10 14 1013.9 1013.9 0.0
28/08:00am 21.3 17.7 6.8 39 7.4 S 15 24 8 13 1013.7 1013.7 0.0

Other Formats:

Comma delimited format used in spreadsheet applications
http://www.bom.gov.au/fwo/IDQ60801/IDQ60801.94592.axf

JavaScript Object Notation format (JSON) in row-major order
http://www.bom.gov.au/fwo/IDQ60801/IDQ60801.94592.json